Time;durP1;ratioP1;P1;durP2;ratioP2;P2;SDS_P1;SDS_P2;PMS_P1;PMS_P2;Temp;Humidity;BMP_temperature;BMP_pressure;BME280_temperature;BME280_humidity;BME280_pressure;Samples;Min_cycle;Max_cycle;Signal;HPM_P1;HPM_P2
2024/01/26 00:00:56;;;;;;;17.52;8.27;;;;;;;7.97;100.00;99905.78;5085857;28;20036;-80
2024/01/26 00:03:21;;;;;;;20.65;8.50;;;;;;;8.02;100.00;99926.88;5085318;28;20031;-79
2024/01/26 00:05:46;;;;;;;16.73;8.30;;;;;;;7.95;100.00;99917.72;5067156;28;20071;-79
2024/01/26 00:08:15;;;;;;;24.77;9.43;;;;;;;8.01;100.00;99922.47;5080179;28;20025;-79
2024/01/26 00:10:40;;;;;;;20.40;9.07;;;;;;;8.03;100.00;99921.31;5055611;28;20100;-79
2024/01/26 00:13:05;;;;;;;18.00;8.90;;;;;;;8.00;100.00;99924.34;5064354;28;20048;-79
2024/01/26 00:15:30;;;;;;;16.15;9.10;;;;;;;7.82;100.00;99892.06;5076527;28;20069;-80
2024/01/26 00:17:56;;;;;;;35.15;12.55;;;;;;;7.90;100.00;99896.66;5064556;28;20024;-82
2024/01/26 00:20:21;;;;;;;24.77;10.80;;;;;;;8.03;100.00;99932.09;5060621;28;20331;-82
2024/01/26 00:22:47;;;;;;;27.92;10.90;;;;;;;7.93;100.00;99890.09;5082791;28;20024;-80
2024/01/26 00:25:12;;;;;;;21.40;10.00;;;;;;;8.05;100.00;99922.00;5061487;28;20044;-80
2024/01/26 00:30:17;;;;;;;21.67;9.63;;;;;;;8.08;100.00;99923.53;5081255;28;20247;-78
2024/01/26 00:32:42;;;;;;;21.92;9.15;;;;;;;8.05;100.00;99932.78;5065666;28;20016;-78
2024/01/26 00:35:08;;;;;;;22.00;10.20;;;;;;;7.98;100.00;99918.25;5063735;28;20039;-77
2024/01/26 00:37:33;;;;;;;25.58;10.70;;;;;;;7.90;100.00;99907.41;5061145;28;20133;-77
2024/01/26 00:39:58;;;;;;;19.05;10.95;;;;;;;7.98;100.00;99922.81;5071207;28;20024;-79
2024/01/26 00:42:24;;;;;;;19.33;10.85;;;;;;;7.81;100.00;99914.63;5086538;28;20084;-77
2024/01/26 00:44:49;;;;;;;22.90;10.85;;;;;;;7.95;100.00;99929.34;5081785;28;20024;-77
2024/01/26 00:47:14;;;;;;;22.52;10.57;;;;;;;7.85;100.00;99918.66;5065667;28;20335;-79
2024/01/26 00:49:39;;;;;;;23.17;11.18;;;;;;;7.78;100.00;99924.84;5064171;28;20091;-79
2024/01/26 00:52:05;;;;;;;20.83;11.30;;;;;;;7.73;100.00;99908.31;5062990;28;20025;-79
2024/01/26 00:54:30;;;;;;;22.40;11.90;;;;;;;7.78;100.00;99923.03;5063986;28;20339;-79
2024/01/26 00:56:55;;;;;;;22.17;11.48;;;;;;;7.78;100.00;99927.53;5061520;28;20020;-79
2024/01/26 00:59:21;;;;;;;26.85;11.98;;;;;;;7.80;100.00;99912.91;5082782;28;20302;-79
2024/01/26 01:01:46;;;;;;;27.63;12.10;;;;;;;7.85;100.00;99928.59;5079798;28;20027;-79
2024/01/26 01:04:11;;;;;;;24.88;11.50;;;;;;;7.81;100.00;99925.41;5061553;28;20023;-79
2024/01/26 01:06:37;;;;;;;25.88;11.10;;;;;;;7.80;100.00;99907.53;5063660;28;20024;-79
2024/01/26 01:09:02;;;;;;;24.38;11.82;;;;;;;7.83;100.00;99927.91;5084134;28;20027;-79
2024/01/26 01:11:27;;;;;;;25.92;12.40;;;;;;;7.80;100.00;99933.63;5065048;28;20020;-79
2024/01/26 01:13:53;;;;;;;27.10;11.40;;;;;;;7.83;100.00;99927.91;5081702;28;20024;-79
2024/01/26 01:16:18;;;;;;;23.88;11.60;;;;;;;7.87;100.00;99934.69;5078726;28;20036;-79
2024/01/26 01:18:43;;;;;;;24.23;10.50;;;;;;;7.85;100.00;99918.66;5081807;28;20025;-79
2024/01/26 01:21:09;;;;;;;21.85;10.63;;;;;;;7.89;100.00;99922.75;5084785;28;20012;-79
2024/01/26 01:23:35;;;;;;;20.08;10.15;;;;;;;7.96;100.00;99932.88;5082363;28;20088;-79
2024/01/26 01:26:01;;;;;;;19.67;10.43;;;;;;;7.75;100.00;99899.06;5084960;28;20048;-80
2024/01/26 01:28:26;;;;;;;18.92;9.20;;;;;;;7.93;100.00;99934.03;5080015;28;20024;-79
2024/01/26 01:30:51;;;;;;;18.98;8.45;;;;;;;7.77;100.00;99902.47;5066059;28;20020;-79
2024/01/26 01:33:17;;;;;;;17.75;8.93;;;;;;;7.92;100.00;99926.13;5079497;28;20034;-79
2024/01/26 01:35:42;;;;;;;17.90;9.00;;;;;;;7.98;100.00;99930.88;5064826;28;20027;-79
2024/01/26 01:38:07;;;;;;;15.88;8.30;;;;;;;7.99;100.00;99927.16;5064920;28;20024;-79
2024/01/26 01:40:32;;;;;;;16.30;8.07;;;;;;;7.89;100.00;99906.59;5065770;28;20309;-79
2024/01/26 01:42:58;;;;;;;21.23;7.97;;;;;;;7.95;100.00;99920.44;5065864;28;20029;-79
2024/01/26 01:45:23;;;;;;;13.73;7.88;;;;;;;8.06;100.00;99922.84;5071603;28;20043;-79
2024/01/26 01:47:48;;;;;;;17.75;7.85;;;;;;;8.09;100.00;99936.00;5072213;28;20024;-79
2024/01/26 01:50:14;;;;;;;17.45;7.63;;;;;;;8.01;100.00;99909.84;5070091;28;20032;-79
2024/01/26 01:52:41;;;;;;;16.15;7.75;;;;;;;8.16;100.00;99923.56;5071395;28;20223;-79
2024/01/26 01:55:11;;;;;;;13.57;7.45;;;;;;;8.12;100.00;99922.19;5070704;28;20024;-79
2024/01/26 01:57:41;;;;;;;18.35;6.95;;;;;;;8.18;100.00;99921.56;5065531;28;20028;-79
2024/01/26 02:00:15;;;;;;;17.58;7.28;;;;;;;8.17;100.00;99903.69;5065621;28;20017;-79
2024/01/26 02:02:45;;;;;;;12.68;6.38;;;;;;;8.12;100.00;99912.28;5070133;28;20031;-79
2024/01/26 02:05:10;;;;;;;14.25;6.03;;;;;;;8.11;100.00;99907.88;5068577;28;20077;-79
2024/01/26 02:07:36;;;;;;;11.93;6.22;;;;;;;8.15;100.00;99912.94;5069953;28;20020;-79
2024/01/26 02:10:01;;;;;;;10.73;6.13;;;;;;;8.14;100.00;99912.09;5062866;28;20039;-79
2024/01/26 02:12:26;;;;;;;10.13;5.80;;;;;;;8.15;100.00;99910.25;5064957;28;20035;-79
2024/01/26 02:14:52;;;;;;;12.95;5.70;;;;;;;8.21;100.00;99925.81;5084964;28;20028;-79
2024/01/26 02:17:17;;;;;;;10.65;5.75;;;;;;;8.25;100.00;99921.75;5062883;28;20395;-79
2024/01/26 02:19:42;;;;;;;11.25;5.97;;;;;;;8.09;100.00;99890.19;5068004;28;20029;-80
2024/01/26 02:22:08;;;;;;;13.95;7.05;;;;;;;8.19;100.00;99909.78;5069661;28;20256;-80
2024/01/26 02:24:33;;;;;;;15.32;6.60;;;;;;;8.31;100.00;99924.66;5068412;28;20021;-79
2024/01/26 02:26:58;;;;;;;11.15;6.07;;;;;;;8.19;100.00;99900.84;5082585;28;20803;-79
2024/01/26 02:29:24;;;;;;;9.85;5.22;;;;;;;8.24;100.00;99891.25;5064804;28;20096;-79
2024/01/26 02:31:49;;;;;;;11.57;5.75;;;;;;;8.30;100.00;99906.78;5066908;28;20334;-80
2024/01/26 02:34:14;;;;;;;9.43;5.00;;;;;;;8.27;100.00;99887.41;5091807;28;20024;-79
2024/01/26 02:36:39;;;;;;;10.32;5.60;;;;;;;8.34;100.00;99915.41;5085781;28;20086;-79
2024/01/26 02:39:05;;;;;;;11.18;5.82;;;;;;;8.22;100.00;99890.56;5065143;28;20028;-79
2024/01/26 02:41:32;;;;;;;9.80;5.63;;;;;;;8.16;100.00;99880.44;5065166;28;20020;-80
2024/01/26 02:43:57;;;;;;;13.25;5.35;;;;;;;8.02;100.00;99867.59;5082826;28;20036;-79
2024/01/26 02:46:22;;;;;;;12.15;6.00;;;;;;;8.07;100.00;99893.06;5067973;28;20032;-81
2024/01/26 02:48:48;;;;;;;12.20;6.05;;;;;;;8.11;100.00;99905.19;5084345;28;20032;-80
2024/01/26 02:51:13;;;;;;;8.65;4.93;;;;;;;8.01;100.00;99887.44;5068450;28;20482;-80
2024/01/26 02:53:42;;;;;;;11.20;5.72;;;;;;;8.12;100.00;99888.03;5069742;28;20035;-81
2024/01/26 02:56:07;;;;;;;8.40;5.20;;;;;;;8.22;100.00;99898.66;5067189;28;20021;-81
2024/01/26 02:58:33;;;;;;;7.38;4.75;;;;;;;8.28;100.00;99905.28;5068304;28;20033;-80
2024/01/26 03:00:58;;;;;;;10.60;4.80;;;;;;;8.12;100.00;99888.03;5066802;28;20024;-79
2024/01/26 03:03:23;;;;;;;9.23;4.90;;;;;;;8.18;100.00;99901.88;5065024;28;20032;-79
2024/01/26 03:05:49;;;;;;;6.25;4.32;;;;;;;8.22;100.00;99900.53;5068756;28;20033;-79
2024/01/26 03:08:14;;;;;;;7.75;4.13;;;;;;;8.18;100.00;99900.00;5086072;28;20115;-79
2024/01/26 03:10:40;;;;;;;7.70;4.38;;;;;;;8.16;100.00;99893.09;5062363;28;20025;-81
2024/01/26 03:13:05;;;;;;;9.90;4.47;;;;;;;8.24;100.00;99885.88;5084648;28;20032;-79
2024/01/26 03:15:30;;;;;;;7.75;3.75;;;;;;;8.32;100.00;99891.28;5086531;28;20028;-80
2024/01/26 03:17:55;;;;;;;5.97;3.22;;;;;;;8.33;100.00;99886.75;5068805;28;20055;-79
2024/01/26 03:20:21;;;;;;;6.07;2.97;;;;;;;8.29;100.00;99872.75;5066849;28;20074;-79
2024/01/26 03:22:46;;;;;;;3.55;2.35;;;;;;;8.41;100.00;99883.28;5083006;28;20331;-79
2024/01/26 03:25:11;;;;;;;3.92;2.70;;;;;;;8.42;100.00;99883.13;5066716;28;20024;-80
2024/01/26 03:27:37;;;;;;;4.40;2.58;;;;;;;8.41;100.00;99880.56;5063999;28;20028;-79
2024/01/26 03:30:03;;;;;;;4.95;2.92;;;;;;;8.51;100.00;99883.97;5068920;28;20035;-80
2024/01/26 03:32:29;;;;;;;5.10;2.72;;;;;;;8.44;100.00;99874.88;5067026;28;20020;-79
2024/01/26 03:34:55;;;;;;;3.55;2.70;;;;;;;8.44;100.00;99885.66;5085975;28;20071;-80
2024/01/26 03:37:21;;;;;;;4.25;2.53;;;;;;;8.29;100.00;99863.81;5067775;28;20362;-80
2024/01/26 03:39:46;;;;;;;5.25;2.80;;;;;;;8.43;100.00;99886.66;5066560;28;20527;-80
2024/01/26 03:42:11;;;;;;;4.72;2.90;;;;;;;8.48;100.00;99901.34;5065204;28;20024;-79
2024/01/26 03:44:37;;;;;;;4.68;2.63;;;;;;;8.46;100.00;99903.38;5062853;28;20028;-81
2024/01/26 03:47:03;;;;;;;7.07;2.95;;;;;;;8.38;100.00;99889.78;5067815;28;20024;-79
2024/01/26 03:49:29;;;;;;;3.67;2.28;;;;;;;8.25;100.00;99871.41;5068332;28;20028;-79
2024/01/26 03:51:54;;;;;;;3.30;2.45;;;;;;;8.42;100.00;99901.16;5066791;28;20096;-79
2024/01/26 03:54:19;;;;;;;5.53;2.20;;;;;;;8.27;100.00;99876.63;5067561;28;20035;-79
2024/01/26 03:56:44;;;;;;;4.53;2.20;;;;;;;8.26;100.00;99875.78;5067241;28;20200;-79
2024/01/26 03:59:10;;;;;;;4.13;2.13;;;;;;;8.29;100.00;99897.00;5065486;28;20108;-79
2024/01/26 04:01:35;;;;;;;4.18;2.38;;;;;;;8.19;100.00;99882.81;5060355;28;20021;-79
2024/01/26 04:04:00;;;;;;;3.85;2.28;;;;;;;8.20;100.00;99878.25;5074405;28;20073;-79
2024/01/26 04:06:26;;;;;;;3.83;2.10;;;;;;;8.29;100.00;99894.31;5067386;28;20072;-79
2024/01/26 04:08:51;;;;;;;4.60;2.38;;;;;;;8.19;100.00;99881.97;5071667;28;20046;-78
2024/01/26 04:11:16;;;;;;;3.85;2.30;;;;;;;8.17;100.00;99873.19;5059943;28;20047;-79
2024/01/26 04:13:42;;;;;;;3.08;1.90;;;;;;;8.25;100.00;99894.81;5066061;28;20028;-79
2024/01/26 04:16:07;;;;;;;4.97;2.78;;;;;;;8.22;100.00;99873.56;5067182;28;20028;-79
2024/01/26 04:18:33;;;;;;;4.90;2.55;;;;;;;8.39;100.00;99891.53;5065314;28;20070;-79
2024/01/26 04:20:58;;;;;;;3.42;1.83;;;;;;;8.39;100.00;99880.75;5060562;28;20042;-79
2024/01/26 04:23:24;;;;;;;2.28;1.70;;;;;;;8.36;100.00;99881.06;5063782;28;20031;-79
2024/01/26 04:25:49;;;;;;;4.40;1.80;;;;;;;8.41;100.00;99883.28;5072336;28;20374;-79
2024/01/26 04:28:14;;;;;;;3.45;1.90;;;;;;;8.40;100.00;99868.94;5074198;28;20043;-79
2024/01/26 04:30:42;;;;;;;2.92;1.35;;;;;;;8.44;100.00;99874.88;5088047;28;20051;-79
2024/01/26 04:33:07;;;;;;;2.03;1.30;;;;;;;8.57;100.00;99875.25;5064592;28;20025;-79
2024/01/26 04:35:32;;;;;;;3.42;1.30;;;;;;;8.42;100.00;99848.06;5088883;28;20339;-79
2024/01/26 04:37:58;;;;;;;3.33;1.20;;;;;;;8.37;100.00;99823.41;5063722;28;20028;-80
2024/01/26 04:40:23;;;;;;;2.47;1.40;;;;;;;8.49;100.00;99843.72;5087311;28;20262;-79
2024/01/26 04:42:48;;;;;;;2.30;1.15;;;;;;;8.45;100.00;99836.94;5066073;28;20020;-80
2024/01/26 04:45:14;;;;;;;2.35;1.38;;;;;;;8.36;100.00;99835.22;5064259;28;20024;-79
2024/01/26 04:47:39;;;;;;;1.90;1.35;;;;;;;8.41;100.00;99840.13;5085225;28;20024;-79
2024/01/26 04:50:05;;;;;;;3.03;1.33;;;;;;;8.56;100.00;99846.56;5060751;28;20055;-79
2024/01/26 04:52:30;;;;;;;4.20;1.40;;;;;;;8.49;100.00;99845.56;5066090;28;20281;-79
2024/01/26 04:54:55;;;;;;;2.78;1.30;;;;;;;8.51;100.00;99854.31;5071615;28;20032;-80
2024/01/26 04:57:21;;;;;;;2.63;1.40;;;;;;;8.48;100.00;99851.94;5063171;28;20021;-80
2024/01/26 04:59:51;;;;;;;6.78;1.30;;;;;;;8.53;100.00;99863.94;5064313;28;20020;-78
2024/01/26 05:02:17;;;;;;;5.32;1.55;;;;;;;8.50;100.00;99852.63;5077832;28;20024;-80
2024/01/26 05:04:46;;;;;;;;;;;;;;;8.51;100.00;99876.75;5080034;28;20125;-79
2024/01/26 05:07:12;;;;;;;3.58;1.40;;;;;;;8.47;100.00;99867.28;5077553;28;19915;-80
2024/01/26 05:09:38;;;;;;;3.38;1.35;;;;;;;8.53;100.00;99861.22;5083802;28;20024;-75
2024/01/26 05:12:04;;;;;;;5.38;1.80;;;;;;;8.53;100.00;99866.63;5084784;28;20024;-76
2024/01/26 05:14:30;;;;;;;6.43;1.73;;;;;;;8.41;100.00;99854.47;5080161;28;20025;-76
2024/01/26 05:16:56;;;;;;;5.43;2.35;;;;;;;8.54;100.00;99867.47;5050200;23;20041;-54
2024/01/26 05:19:21;;;;;;;5.85;1.65;;;;;;;8.45;100.00;99863.06;5068426;28;20490;-54
2024/01/26 05:21:47;;;;;;;3.63;1.40;;;;;;;8.39;100.00;99858.31;5066668;28;20024;-54
2024/01/26 05:24:12;;;;;;;2.42;1.30;;;;;;;8.48;100.00;99876.22;5068363;28;20024;-53
2024/01/26 05:26:39;;;;;;;6.95;1.73;;;;;;;8.52;100.00;99874.91;5042954;28;20350;-53
2024/01/26 05:29:08;;;;;;;4.75;1.70;;;;;;;8.53;100.00;99869.31;5053870;28;20025;-55
2024/01/26 05:31:35;;;;;;;1.50;0.95;;;;;;;8.54;100.00;99878.25;5048464;28;20021;-54
2024/01/26 05:34:01;;;;;;;4.45;1.17;;;;;;;8.53;100.00;99866.63;5036884;28;20105;-54
2024/01/26 05:36:26;;;;;;;4.50;1.20;;;;;;;8.49;100.00;99862.59;5028317;28;20048;-55
2024/01/26 05:38:52;;;;;;;3.33;1.05;;;;;;;8.40;100.00;99871.66;5034618;28;20542;-54
2024/01/26 05:41:17;;;;;;;2.25;1.40;;;;;;;8.39;100.00;99863.69;5048057;28;20106;-55
2024/01/26 05:43:42;;;;;;;2.40;1.48;;;;;;;8.38;100.00;99873.63;5031880;28;20477;-54
2024/01/26 05:46:09;;;;;;;2.92;1.65;;;;;;;8.35;100.00;99872.09;5049938;28;20024;-53
2024/01/26 05:48:34;;;;;;;4.32;2.00;;;;;;;8.38;100.00;99860.13;5046732;28;20866;-54
2024/01/26 05:51:00;;;;;;;2.63;1.70;;;;;;;8.29;100.00;99850.34;5030006;28;20043;-53
2024/01/26 05:53:25;;;;;;;5.38;1.88;;;;;;;8.33;100.00;99855.25;5049691;28;20021;-54
2024/01/26 05:55:50;;;;;;;3.25;1.38;;;;;;;8.41;100.00;99854.47;5050480;28;20843;-53
2024/01/26 05:58:18;;;;;;;5.07;2.20;;;;;;;8.41;100.00;99851.78;5036851;28;20025;-53
2024/01/26 06:00:44;;;;;;;4.72;1.63;;;;;;;8.34;100.00;99856.09;5048004;28;20070;-53
2024/01/26 06:03:09;;;;;;;2.72;1.58;;;;;;;8.29;100.00;99851.19;5049768;28;20025;-53
2024/01/26 06:05:34;;;;;;;4.45;1.50;;;;;;;8.31;100.00;99861.81;5050971;28;20032;-53
2024/01/26 06:08:00;;;;;;;4.80;1.73;;;;;;;8.27;100.00;99855.88;5052121;28;20032;-53
2024/01/26 06:10:25;;;;;;;2.58;1.55;;;;;;;8.29;100.00;99855.75;5045210;28;20037;-53
2024/01/26 06:12:51;;;;;;;3.33;1.33;;;;;;;8.33;100.00;99862.47;5034209;28;20039;-53
2024/01/26 06:15:16;;;;;;;2.38;1.35;;;;;;;8.27;100.00;99857.75;5047767;28;20111;-53
2024/01/26 06:17:42;;;;;;;2.65;1.13;;;;;;;8.36;100.00;99864.88;5051384;28;20432;-53
2024/01/26 06:20:08;;;;;;;4.75;1.25;;;;;;;8.31;100.00;99856.44;5046950;28;20479;-53
2024/01/26 06:22:35;;;;;;;2.70;1.30;;;;;;;8.44;100.00;99873.03;5044897;28;20472;-53
2024/01/26 06:25:01;;;;;;;3.47;1.70;;;;;;;8.50;100.00;99868.81;5047814;28;20044;-53
2024/01/26 06:27:26;;;;;;;3.53;1.35;;;;;;;8.54;100.00;99867.47;5046555;28;20387;-53
2024/01/26 06:29:51;;;;;;;3.85;1.30;;;;;;;8.57;100.00;99859.06;5050526;28;20025;-53
2024/01/26 06:32:19;;;;;;;4.55;1.40;;;;;;;8.58;100.00;99859.91;5049649;28;20465;-53
2024/01/26 06:34:45;;;;;;;2.35;1.30;;;;;;;8.59;100.00;99864.28;5050889;28;20016;-53
2024/01/26 06:37:11;;;;;;;2.95;1.10;;;;;;;8.52;100.00;99864.13;5045538;28;20025;-53
2024/01/26 06:42:12;;;;;;;4.97;2.30;;;;;;;8.30;100.00;99878.97;5041320;28;20037;-80
2024/01/26 06:44:38;;;;;;;6.13;2.65;;;;;;;8.24;100.00;99876.94;5029047;28;20049;-84
2024/01/26 06:47:03;;;;;;;5.07;1.90;;;;;;;8.32;100.00;99890.47;5034036;28;20093;-86
2024/01/26 06:49:28;;;;;;;3.40;2.00;;;;;;;8.29;100.00;99880.00;5023493;28;20034;-88
2024/01/26 06:51:54;;;;;;;3.20;1.63;;;;;;;8.31;100.00;99883.38;5007948;28;20030;-88
2024/01/26 06:54:19;;;;;;;5.60;2.22;;;;;;;8.20;100.00;99860.25;5003169;28;20021;-72
2024/01/26 06:56:44;;;;;;;5.32;1.85;;;;;;;8.11;100.00;99843.19;5021466;28;20026;-71
2024/01/26 06:59:10;;;;;;;2.50;1.48;;;;;;;8.15;100.00;99862.59;5004261;28;20344;-72
2024/01/26 07:01:35;;;;;;;4.82;1.77;;;;;;;8.30;100.00;99877.13;5005667;28;20018;-70
2024/01/26 07:04:00;;;;;;;4.55;1.30;;;;;;;8.26;100.00;99870.38;5019972;28;20065;-70
2024/01/26 07:06:26;;;;;;;2.80;1.50;;;;;;;8.18;100.00;99856.88;5020467;28;20065;-70
2024/01/26 07:08:51;;;;;;;3.35;1.67;;;;;;;8.32;100.00;99879.66;5006605;28;20115;-70
2024/01/26 07:11:18;;;;;;;6.00;2.28;;;;;;;8.27;100.00;99865.84;5002480;28;20038;-79
2024/01/26 07:13:43;;;;;;;2.30;1.55;;;;;;;8.30;100.00;99868.19;5004147;28;20032;-82
2024/01/26 07:16:09;;;;;;;3.45;1.85;;;;;;;8.24;100.00;99852.69;5010678;28;20216;-85
2024/01/26 07:18:34;;;;;;;3.35;2.08;;;;;;;8.25;100.00;99846.28;5005785;28;20033;-70
2024/01/26 07:21:08;;;;;;;4.80;1.95;;;;;;;8.25;100.00;99846.28;5026790;28;20025;-81
2024/01/26 07:23:34;;;;;;;3.88;1.90;;;;;;;8.28;100.00;99845.97;5008267;28;20041;-83
2024/01/26 07:26:00;;;;;;;2.47;1.63;;;;;;;8.44;100.00;99858.69;5008309;28;20320;-83
2024/01/26 07:28:26;;;;;;;3.08;1.77;;;;;;;8.43;100.00;99852.44;5001500;28;20025;-74
2024/01/26 07:30:52;;;;;;;5.35;1.70;;;;;;;8.48;100.00;99844.69;5021159;28;20056;-88
2024/01/26 07:33:17;;;;;;;3.90;1.50;;;;;;;8.50;100.00;99860.72;5000851;28;20356;-85
2024/01/26 07:35:42;;;;;;;3.33;1.83;;;;;;;8.53;100.00;99855.00;5001540;28;20018;-84
2024/01/26 07:38:08;;;;;;;6.10;2.30;;;;;;;8.36;100.00;99835.22;5006775;28;20029;-82
2024/01/26 07:40:33;;;;;;;3.03;2.15;;;;;;;8.36;100.00;99837.91;5004072;28;20013;-78
2024/01/26 07:42:58;;;;;;;3.17;1.80;;;;;;;8.27;100.00;99818.16;5005996;28;20049;-83
2024/01/26 07:45:23;;;;;;;5.00;1.90;;;;;;;8.37;100.00;99828.81;5007588;28;20022;-81
2024/01/26 07:47:49;;;;;;;3.63;2.20;;;;;;;8.46;100.00;99851.25;5004618;28;20061;-82
2024/01/26 07:50:14;;;;;;;3.80;2.10;;;;;;;8.55;100.00;99863.78;5024408;28;20105;-83
2024/01/26 07:52:40;;;;;;;5.03;1.85;;;;;;;8.60;100.00;99855.19;5006632;28;20018;-84
2024/01/26 07:55:05;;;;;;;4.38;1.73;;;;;;;8.66;100.00;99855.38;5002281;28;20022;-79
2024/01/26 07:57:30;;;;;;;3.88;1.73;;;;;;;8.78;100.00;99854.06;5007681;28;20384;-82
2024/01/26 07:59:56;;;;;;;3.05;1.60;;;;;;;8.75;100.00;99831.94;5007040;28;20079;-71
2024/01/26 08:02:21;;;;;;;5.32;1.92;;;;;;;8.82;100.00;99824.88;4999043;28;20037;-72
2024/01/26 08:04:46;;;;;;;2.45;1.60;;;;;;;9.04;100.00;99825.22;5005909;28;20025;-73
2024/01/26 08:07:14;;;;;;;4.60;2.33;;;;;;;9.21;100.00;99808.00;4999364;28;20022;-76
2024/01/26 08:09:39;;;;;;;2.53;1.67;;;;;;;9.49;100.00;99813.91;5018506;28;20018;-71
2024/01/26 08:12:05;;;;;;;2.47;1.63;;;;;;;9.59;100.00;99816.41;5009583;28;20048;-72
2024/01/26 08:14:30;;;;;;;3.38;1.70;;;;;;;9.57;100.00;99778.75;5012402;28;20017;-85
2024/01/26 08:16:55;;;;;;;5.03;1.60;;;;;;;9.82;100.00;99806.56;5005401;28;20034;-87
2024/01/26 08:19:21;;;;;;;4.68;1.70;;;;;;;9.88;100.00;99800.44;5017278;28;20036;-87
2024/01/26 08:21:46;;;;;;;3.50;1.55;;;;;;;9.83;100.00;99810.94;5001915;28;20264;-72
2024/01/26 08:24:11;;;;;;;2.97;1.73;;;;;;;9.87;100.00;99814.97;5006557;28;20029;-79
2024/01/26 08:26:37;;;;;;;4.43;1.63;;;;;;;9.86;100.00;99805.19;5006027;28;20248;-82
2024/01/26 08:29:02;;;;;;;3.97;2.08;;;;;;;9.88;100.00;99808.56;5003690;28;20057;-82
2024/01/26 08:31:29;;;;;;;3.25;2.00;;;;;;;9.72;100.00;99778.03;5007967;28;20396;-82
2024/01/26 08:33:54;;;;;;;6.25;2.55;;;;;;;9.80;100.00;99751.84;5004982;28;20022;-77
2024/01/26 08:36:20;;;;;;;6.00;2.65;;;;;;;10.17;100.00;99790.88;5009524;28;20347;-74
2024/01/26 08:38:45;;;;;;;3.33;1.88;;;;;;;9.87;100.00;99735.75;5000197;28;20253;-77
2024/01/26 08:41:10;;;;;;;4.68;2.22;;;;;;;10.21;100.00;99764.31;5017147;28;20162;-80
2024/01/26 08:43:36;;;;;;;5.90;2.20;;;;;;;10.12;100.00;99722.94;5019094;28;20029;-79
2024/01/26 08:46:01;;;;;;;3.45;1.73;;;;;;;10.16;100.00;99708.03;5004026;28;20299;-80
2024/01/26 08:48:27;;;;;;;5.28;1.90;;;;;;;10.46;100.00;99743.41;5001632;28;20041;-80
2024/01/26 08:50:52;;;;;;;4.15;1.77;;;;;;;10.62;100.00;99740.56;5001259;28;20029;-80
2024/01/26 08:53:17;;;;;;;5.18;1.70;;;;;;;10.92;100.00;99741.50;5019725;28;20030;-80
2024/01/26 08:55:43;;;;;;;5.13;1.50;;;;;;;10.88;100.00;99737.50;5005579;28;20059;-85
2024/01/26 08:58:08;;;;;;;3.30;1.38;;;;;;;11.15;100.00;99744.16;5001050;28;20026;-85
2024/01/26 09:00:35;;;;;;;2.17;1.13;;;;;;;11.21;100.00;99736.34;5005773;28;20026;-71
2024/01/26 09:03:00;;;;;;;2.75;1.13;;;;;;;11.24;100.00;99733.25;4999437;28;20030;-70
2024/01/26 09:05:25;;;;;;;3.85;1.42;;;;;;;11.08;100.00;99697.22;5011995;28;20033;-84
2024/01/26 09:07:50;;;;;;;3.88;1.50;;;;;;;11.14;100.00;99711.88;5005433;28;20018;-82
2024/01/26 09:10:16;;;;;;;1.92;1.17;;;;;;;11.13;100.00;99705.63;5003503;28;20202;-83
2024/01/26 09:12:41;;;;;;;3.13;1.38;;;;;;;10.93;100.00;99680.94;5003141;28;20022;-77
2024/01/26 09:15:07;;;;;;;2.70;1.52;;;;;;;10.91;100.00;99706.50;5005078;28;20025;-79
2024/01/26 09:17:33;;;;;;;2.85;1.17;;;;;;;10.93;100.00;99704.47;5008453;28;20034;-75
2024/01/26 09:19:58;;;;;;;2.70;1.25;;;;;;;11.07;100.00;99729.88;5020046;28;20100;-78
2024/01/26 09:22:24;;;;;;;1.98;1.02;;;;;;;10.96;100.00;99726.59;5011769;28;20014;-86
2024/01/26 09:24:49;;;;;;;4.85;1.10;;;;;;;11.01;100.00;99717.91;5033126;28;20026;-77
2024/01/26 09:27:15;;;;;;;3.08;1.00;;;;;;;10.90;100.00;99694.00;5010581;28;20029;-77
2024/01/26 09:29:40;;;;;;;2.78;1.00;;;;;;;10.86;100.00;99660.19;5024161;28;20041;-87
2024/01/26 09:32:06;;;;;;;1.60;1.05;;;;;;;11.27;100.00;99719.38;5019163;28;20045;-83
2024/01/26 09:34:31;;;;;;;2.97;1.00;;;;;;;11.08;100.00;99686.38;5009786;28;20038;-74
2024/01/26 09:36:57;;;;;;;3.72;1.00;;;;;;;11.26;100.00;99698.69;4997596;28;20320;-73
2024/01/26 09:39:22;;;;;;;5.50;1.02;;;;;;;11.39;100.00;99704.31;5017538;28;20018;-81
2024/01/26 09:41:48;;;;;;;2.85;0.98;;;;;;;11.51;100.00;99693.88;5028664;28;20085;-70
2024/01/26 09:44:13;;;;;;;2.78;1.20;;;;;;;11.43;100.00;99683.97;5030550;28;20026;-81
2024/01/26 09:46:39;;;;;;;2.55;0.90;;;;;;;11.51;100.00;99708.25;5013015;28;20034;-80
2024/01/26 09:49:07;;;;;;;2.00;0.90;;;;;;;11.51;100.00;99710.97;5011307;28;20404;-82
2024/01/26 09:51:33;;;;;;;2.63;1.05;;;;;;;11.40;100.00;99703.31;5015259;28;20018;-84
2024/01/26 09:53:59;;;;;;;1.48;0.70;;;;;;;11.40;100.00;99701.44;5002401;28;20041;-83
2024/01/26 09:56:26;;;;;;;2.25;0.95;;;;;;;11.24;100.00;99706.16;5008557;28;20030;-77
2024/01/26 09:58:52;;;;;;;1.92;1.00;;;;;;;11.28;100.00;99681.22;5004474;28;20097;-76
2024/01/26 10:01:21;;;;;;;1.88;0.80;;;;;;;11.48;100.00;99707.78;5026527;28;20045;-79
2024/01/26 10:03:47;;;;;;;2.13;1.13;;;;;;;11.42;100.00;99703.94;5033153;28;20041;-84
2024/01/26 10:06:12;;;;;;;1.30;0.80;;;;;;;11.42;100.00;99703.94;5011585;28;20022;-77
2024/01/26 10:08:41;;;;;;;3.50;1.02;;;;;;;11.51;100.00;99708.25;5006903;28;20030;-77
2024/01/26 10:11:07;;;;;;;4.88;1.20;;;;;;;11.45;100.00;99705.44;5024607;28;20160;-77
2024/01/26 10:13:33;;;;;;;3.05;1.27;;;;;;;11.18;100.00;99691.50;5008926;28;20029;-76
2024/01/26 10:16:05;;;;;;;2.60;1.50;;;;;;;11.13;100.00;99711.03;5017855;28;20037;-72
2024/01/26 10:18:43;;;;;;;3.25;1.83;;;;;;;11.06;100.00;99723.63;5030583;28;20045;-87
2024/01/26 10:21:09;;;;;;;4.03;1.75;;;;;;;10.98;100.00;99699.34;5018864;28;20014;-79
2024/01/26 10:23:34;;;;;;;6.20;1.80;;;;;;;10.91;100.00;99707.34;5015401;28;20049;-81
2024/01/26 10:25:59;;;;;;;3.88;1.80;;;;;;;11.00;100.00;99704.56;5015854;28;20512;-72
2024/01/26 10:28:25;;;;;;;4.13;1.95;;;;;;;11.02;100.00;99697.94;5006286;28;20060;-67
2024/01/26 10:30:50;;;;;;;4.32;1.80;;;;;;;10.91;100.00;99676.72;5021864;28;20034;-69
2024/01/26 10:33:15;;;;;;;5.57;2.28;;;;;;;10.98;100.00;99683.09;5005564;28;20042;-69
2024/01/26 10:35:45;;;;;;;4.95;1.83;;;;;;;10.88;100.00;99677.94;5021873;28;20060;-69
2024/01/26 10:38:13;;;;;;;6.07;3.40;;;;;;;10.98;100.00;99691.22;5022037;28;20018;-69
2024/01/26 10:40:44;;;;;;;7.82;4.03;;;;;;;10.87;100.00;99678.97;5018393;28;20777;-69
2024/01/26 10:43:11;;;;;;;7.32;2.78;;;;;;;10.73;100.00;99675.19;5018957;28;20057;-69
2024/01/26 10:45:37;;;;;;;5.75;2.00;;;;;;;10.60;100.00;99683.06;5003380;28;20392;-68
2024/01/26 10:48:05;;;;;;;5.80;2.15;;;;;;;10.54;100.00;99667.59;5020648;28;20037;-69
2024/01/26 10:50:32;;;;;;;3.40;1.42;;;;;;;10.35;100.00;99651.81;5001300;28;20089;-70
2024/01/26 10:52:58;;;;;;;5.97;1.30;;;;;;;10.35;100.00;99658.09;5004376;28;20026;-70
2024/01/26 10:55:26;;;;;;;3.47;1.20;;;;;;;10.33;100.00;99670.97;4998781;28;20060;-70
2024/01/26 10:57:51;;;;;;;3.83;1.48;;;;;;;10.20;100.00;99647.19;5011391;28;20093;-70
2024/01/26 11:00:17;;;;;;;4.53;1.80;;;;;;;10.39;100.00;99672.09;5020859;28;20041;-68
2024/01/26 11:02:43;;;;;;;3.28;1.52;;;;;;;10.17;100.00;99631.31;5017962;28;20132;-71
2024/01/26 11:05:11;;;;;;;1.90;1.17;;;;;;;10.24;100.00;99664.75;5005991;28;20064;-71
2024/01/26 11:07:38;;;;;;;3.55;1.45;;;;;;;10.26;100.00;99669.97;5018137;28;20053;-73
2024/01/26 11:10:08;;;;;;;2.28;1.13;;;;;;;10.30;100.00;99674.03;5020088;28;20022;-69
2024/01/26 11:12:38;;;;;;;4.88;1.90;;;;;;;10.27;100.00;99685.16;5021319;28;20038;-69
2024/01/26 11:15:11;;;;;;;3.83;1.63;;;;;;;10.22;100.00;99666.78;5013028;28;20076;-68
2024/01/26 11:17:53;;;;;;;5.65;2.67;;;;;;;10.17;100.00;99674.59;5014313;28;20038;-68
2024/01/26 11:20:35;;;;;;;5.57;1.50;;;;;;;10.15;100.00;99673.91;5003890;28;20040;-69
2024/01/26 11:23:04;;;;;;;5.85;1.42;;;;;;;10.17;100.00;99671.88;5019514;28;20034;-69
2024/01/26 11:25:44;;;;;;;3.75;1.42;;;;;;;10.17;100.00;99657.53;5006538;28;20090;-69
2024/01/26 11:28:10;;;;;;;5.70;1.48;;;;;;;10.25;100.00;99662.88;5017148;28;20105;-69